createdAt,value
2022-11-05T00:03:14.712Z,101130.94
2022-11-05T00:06:30.387Z,101127.28
2022-11-05T00:09:30.769Z,101132.22
2022-11-05T00:12:46.400Z,101127.00
2022-11-05T00:16:03.257Z,101122.94
2022-11-05T00:19:10.149Z,101126.47
2022-11-05T00:22:25.745Z,101128.84
2022-11-05T00:25:22.921Z,101129.19
2022-11-05T00:28:19.813Z,101139.53
2022-11-05T00:31:17.064Z,101139.78
2022-11-05T00:34:13.888Z,101144.97
2022-11-05T00:37:10.833Z,101143.19
2022-11-05T00:40:08.779Z,101144.72
2022-11-05T00:43:24.587Z,101143.91
2022-11-05T00:46:23.341Z,101143.09
2022-11-05T00:49:32.127Z,101133.91
2022-11-05T00:52:48.012Z,101132.72
2022-11-05T00:55:45.173Z,101125.91
2022-11-05T00:58:41.937Z,101122.59
2022-11-05T01:01:39.039Z,101136.22
2022-11-05T01:04:35.765Z,101133.97
2022-11-05T01:07:33.498Z,101142.13
2022-11-05T01:10:30.939Z,101139.47
2022-11-05T01:13:31.064Z,101135.66
2022-11-05T01:16:28.183Z,101132.03
2022-11-05T01:19:25.044Z,101144.13
2022-11-05T01:22:22.142Z,101148.97
2022-11-05T01:25:19.093Z,101143.03
2022-11-05T01:28:15.954Z,101145.03
2022-11-05T01:31:12.656Z,101153.66
2022-11-05T01:34:10.139Z,101154.25
2022-11-05T01:37:06.649Z,101154.59
2022-11-05T01:40:04.417Z,101166.19
2022-11-05T01:43:01.891Z,101171.13
2022-11-05T01:45:59.379Z,101176.81
2022-11-05T01:49:02.770Z,101156.75
2022-11-05T01:52:00.111Z,101161.00
2022-11-05T01:54:57.090Z,101165.00
2022-11-05T01:57:54.004Z,101151.47
2022-11-05T02:00:51.248Z,101154.50
2022-11-05T02:03:48.875Z,101151.66
2022-11-05T02:06:48.792Z,101147.09
2022-11-05T02:09:56.963Z,101153.41
2022-11-05T02:12:54.595Z,101161.81
2022-11-05T02:16:24.139Z,101162.34
2022-11-05T02:19:39.958Z,101184.81
2022-11-05T02:22:57.202Z,101162.88
2022-11-05T02:26:15.124Z,101165.22
2022-11-05T02:29:37.405Z,101173.44
2022-11-05T02:32:40.052Z,101183.44
2022-11-05T02:35:41.284Z,101192.81
2022-11-05T02:38:52.807Z,101196.44
2022-11-05T02:41:52.943Z,101170.84
2022-11-05T02:45:20.776Z,101165.72
2022-11-05T02:48:28.502Z,101169.81
2022-11-05T02:51:56.191Z,101174.81
2022-11-05T02:55:00.221Z,101183.25
2022-11-05T02:57:59.816Z,101198.47
2022-11-05T03:00:57.992Z,101182.25
2022-11-05T03:04:00.819Z,101201.63
2022-11-05T03:07:17.168Z,101204.75
2022-11-05T03:10:26.840Z,101203.06
2022-11-05T03:13:33.044Z,101199.63
2022-11-05T03:16:38.740Z,101192.03
2022-11-05T03:19:50.039Z,101196.47
2022-11-05T03:22:51.266Z,101188.22
2022-11-05T03:25:51.752Z,101191.69
2022-11-05T03:28:52.073Z,101209.78
2022-11-05T03:31:49.535Z,101190.31
2022-11-05T03:34:51.759Z,101178.28
2022-11-05T03:37:49.656Z,101184.06
2022-11-05T03:40:47.720Z,101180.47
2022-11-05T03:43:50.512Z,101190.53
2022-11-05T03:46:49.389Z,101184.41
2022-11-05T03:50:15.414Z,101183.91
2022-11-05T03:53:15.868Z,101185.06
2022-11-05T03:56:31.496Z,101186.88
2022-11-05T03:59:30.417Z,101169.81
2022-11-05T04:02:27.426Z,101171.41
2022-11-05T04:05:25.170Z,101181.59
2022-11-05T04:08:40.424Z,101165.56
2022-11-05T04:11:55.956Z,101168.78
2022-11-05T04:14:53.025Z,101176.19
2022-11-05T04:17:50.443Z,101181.47
2022-11-05T04:21:05.894Z,101192.91
2022-11-05T04:24:09.403Z,101206.00
2022-11-05T04:27:07.640Z,101196.41
2022-11-05T04:30:21.669Z,101199.03
2022-11-05T04:33:18.934Z,101202.34
2022-11-05T04:36:16.286Z,101212.63
2022-11-05T04:39:13.160Z,101219.25
2022-11-05T04:42:10.260Z,101209.13
2022-11-05T04:45:07.568Z,101214.88
2022-11-05T04:48:04.536Z,101223.41
2022-11-05T04:51:00.996Z,101236.38
2022-11-05T04:53:58.365Z,101236.56
2022-11-05T04:56:54.918Z,101237.06
2022-11-05T04:59:53.877Z,101240.75
2022-11-05T05:02:51.363Z,101237.94
2022-11-05T05:05:48.063Z,101246.69
2022-11-05T05:08:47.119Z,101243.03
2022-11-05T05:11:44.033Z,101260.16
2022-11-05T05:14:41.008Z,101256.50
2022-11-05T05:17:38.090Z,101265.53
2022-11-05T05:20:53.652Z,101263.94
2022-11-05T05:23:51.459Z,101256.78
2022-11-05T05:26:49.064Z,101253.41
2022-11-05T05:29:46.454Z,101242.25
2022-11-05T05:32:43.159Z,101264.56
2022-11-05T05:35:40.418Z,101274.50
2022-11-05T05:38:37.270Z,101269.38
2022-11-05T05:41:34.449Z,101259.69
2022-11-05T05:44:31.045Z,101251.53
2022-11-05T05:47:28.536Z,101253.63
2022-11-05T05:50:24.976Z,101250.75
2022-11-05T05:53:22.242Z,101260.59
2022-11-05T05:56:20.618Z,101262.28
2022-11-05T05:59:17.908Z,101279.06
2022-11-05T06:02:15.990Z,101291.03
2022-11-05T06:05:13.238Z,101282.06
2022-11-05T06:08:10.232Z,101276.66
2022-11-05T06:11:07.396Z,101293.78
2022-11-05T06:14:04.295Z,101303.06
2022-11-05T06:17:01.098Z,101304.59
2022-11-05T06:19:58.396Z,101318.84
2022-11-05T06:22:58.261Z,101307.69
2022-11-05T06:25:57.854Z,101320.31
2022-11-05T06:28:55.318Z,101312.41
2022-11-05T06:31:52.086Z,101306.47
2022-11-05T06:34:49.287Z,101310.13
2022-11-05T06:37:46.448Z,101321.19
2022-11-05T06:40:42.918Z,101314.06
2022-11-05T06:43:40.437Z,101316.81
2022-11-05T06:46:37.130Z,101324.66
2022-11-05T06:49:33.974Z,101319.16
2022-11-05T06:52:31.480Z,101319.13
2022-11-05T06:55:29.360Z,101320.44
2022-11-05T06:58:26.780Z,101327.03
2022-11-05T07:01:24.303Z,101334.88
2022-11-05T07:04:21.266Z,101335.84
2022-11-05T07:07:18.199Z,101353.13
2022-11-05T07:10:16.581Z,101356.66
2022-11-05T07:13:13.654Z,101350.84
2022-11-05T07:16:11.519Z,101362.00
2022-11-05T07:19:08.256Z,101358.09
2022-11-05T07:22:05.198Z,101359.31
2022-11-05T07:25:02.232Z,101365.06
2022-11-05T07:27:59.146Z,101374.00
2022-11-05T07:30:58.601Z,101359.81
2022-11-05T07:33:55.389Z,101371.94
2022-11-05T07:36:52.376Z,101382.34
2022-11-05T07:39:49.354Z,101386.56
2022-11-05T07:42:47.664Z,101372.44
2022-11-05T07:45:47.722Z,101374.56
2022-11-05T07:48:45.112Z,101383.94
2022-11-05T07:51:42.731Z,101376.59
2022-11-05T07:54:40.191Z,101375.63
2022-11-05T07:57:55.531Z,101395.91
2022-11-05T08:00:52.953Z,101381.22
2022-11-05T08:03:50.259Z,101395.84
2022-11-05T08:06:47.900Z,101399.50
2022-11-05T08:09:45.288Z,101395.22
2022-11-05T08:12:42.239Z,101401.47
2022-11-05T08:15:39.442Z,101390.38
2022-11-05T08:18:36.184Z,101403.47
2022-11-05T08:21:33.664Z,101397.13
2022-11-05T08:24:30.496Z,101397.28
2022-11-05T08:27:27.401Z,101394.47
2022-11-05T08:30:24.612Z,101403.66
2022-11-05T08:33:23.012Z,101406.94
2022-11-05T08:36:20.439Z,101401.81
2022-11-05T08:39:19.034Z,101404.06
2022-11-05T08:42:16.301Z,101398.13
2022-11-05T08:45:13.290Z,101403.91
2022-11-05T08:48:11.627Z,101412.56
2022-11-05T08:51:08.927Z,101404.25
2022-11-05T08:54:06.089Z,101411.91
2022-11-05T08:57:03.688Z,101415.16
2022-11-05T09:00:00.235Z,101414.81
2022-11-05T09:03:03.459Z,101408.75
2022-11-05T09:06:00.498Z,101408.91
2022-11-05T09:08:57.371Z,101425.25
2022-11-05T09:15:11.179Z,101410.56
2022-11-05T09:18:10.100Z,101422.22
2022-11-05T09:21:07.570Z,101417.84
2022-11-05T09:24:04.676Z,101437.00
2022-11-05T09:27:01.541Z,101428.13
2022-11-05T09:29:58.437Z,101432.00
2022-11-05T09:32:55.594Z,101421.91
2022-11-05T09:35:52.967Z,101432.59
2022-11-05T09:38:50.343Z,101426.75
2022-11-05T09:41:47.184Z,101433.50
2022-11-05T09:44:55.262Z,101441.72
2022-11-05T09:47:54.280Z,101428.56
2022-11-05T09:50:51.180Z,101445.25
2022-11-05T09:53:48.644Z,101441.22
2022-11-05T09:56:45.133Z,101449.16
2022-11-05T09:59:47.731Z,101446.75
2022-11-05T10:02:55.767Z,101447.72
2022-11-05T10:05:53.885Z,101448.25
2022-11-05T10:09:16.329Z,101452.34
2022-11-05T10:12:17.487Z,101434.88
2022-11-05T10:15:35.084Z,101453.78
2022-11-05T10:18:44.507Z,101468.97
2022-11-05T10:24:58.385Z,101467.91
2022-11-05T10:27:55.721Z,101456.69
2022-11-05T10:30:56.638Z,101452.38
2022-11-05T10:34:13.735Z,101456.34
2022-11-05T10:37:10.369Z,101452.28
2022-11-05T10:40:17.656Z,101463.84
2022-11-05T10:43:18.575Z,101460.38
2022-11-05T10:46:30.121Z,101461.44
2022-11-05T10:49:48.383Z,101464.59
2022-11-05T10:52:59.297Z,101476.66
2022-11-05T10:55:58.484Z,101478.59
2022-11-05T10:58:56.983Z,101467.69
2022-11-05T11:01:57.938Z,101464.13
2022-11-05T11:04:56.548Z,101464.59
2022-11-05T11:08:01.417Z,101463.31
2022-11-05T11:11:00.049Z,101454.94
2022-11-05T11:13:57.443Z,101442.41
2022-11-05T11:16:57.759Z,101436.97
2022-11-05T11:20:28.222Z,101437.38
2022-11-05T11:23:25.760Z,101448.50
2022-11-05T11:26:22.661Z,101453.28
2022-11-05T11:29:26.576Z,101447.25
2022-11-05T11:32:24.876Z,101456.66
2022-11-05T11:35:24.341Z,101474.50
2022-11-05T11:38:21.555Z,101451.03
2022-11-05T11:41:39.551Z,101445.19
2022-11-05T11:44:46.437Z,101477.88
2022-11-05T11:47:44.660Z,101460.84
2022-11-05T11:50:43.181Z,101484.47
2022-11-05T11:53:40.565Z,101464.75
2022-11-05T11:56:44.847Z,101482.81
2022-11-05T12:00:07.267Z,101471.94
2022-11-05T12:03:14.744Z,101450.81
2022-11-05T12:06:24.062Z,101456.41
2022-11-05T12:09:43.386Z,101441.66
2022-11-05T12:13:28.415Z,101440.78
2022-11-05T12:17:00.960Z,101456.81
2022-11-05T12:20:10.500Z,101436.19
2022-11-05T12:23:13.251Z,101430.47
2022-11-05T12:26:29.020Z,101430.94
2022-11-05T12:29:51.048Z,101442.56
2022-11-05T12:32:53.457Z,101433.63
2022-11-05T12:36:06.334Z,101431.88
2022-11-05T12:39:39.660Z,101437.78
2022-11-05T12:42:45.115Z,101433.84
2022-11-05T12:45:47.865Z,101441.44
2022-11-05T12:48:57.754Z,101449.19
2022-11-05T12:52:13.852Z,101460.63
2022-11-05T12:55:15.422Z,101466.50
2022-11-05T12:58:15.667Z,101449.72
2022-11-05T13:01:18.451Z,101452.66
2022-11-05T13:04:25.769Z,101443.59
2022-11-05T13:07:27.516Z,101427.69
2022-11-05T13:10:41.356Z,101422.22
2022-11-05T13:14:00.245Z,101432.69
2022-11-05T13:17:18.401Z,101431.63
2022-11-05T13:20:19.389Z,101410.34
2022-11-05T13:23:35.357Z,101431.41
2022-11-05T13:26:46.521Z,101412.31
2022-11-05T13:29:53.889Z,101422.56
2022-11-05T13:33:04.596Z,101421.63
2022-11-05T13:36:31.921Z,101402.75
2022-11-05T13:39:35.517Z,101419.47
2022-11-05T13:43:09.371Z,101398.66
2022-11-05T13:46:09.395Z,101399.16
2022-11-05T13:49:27.967Z,101411.44
2022-11-05T13:52:33.859Z,101420.47
2022-11-05T13:55:33.250Z,101419.88
2022-11-05T13:58:45.283Z,101412.84
2022-11-05T14:01:53.678Z,101423.72
2022-11-05T14:04:58.036Z,101404.72
2022-11-05T14:08:07.179Z,101418.28
2022-11-05T14:11:26.783Z,101416.59
2022-11-05T14:14:30.536Z,101417.91
2022-11-05T14:17:55.817Z,101399.53
2022-11-05T14:21:02.506Z,101404.28
2022-11-05T14:24:00.732Z,101398.47
2022-11-05T14:27:00.489Z,101399.44
2022-11-05T14:29:57.935Z,101407.44
2022-11-05T14:32:55.646Z,101403.06
2022-11-05T14:35:53.744Z,101404.81
2022-11-05T14:38:56.845Z,101389.50
2022-11-05T14:42:06.593Z,101401.28
2022-11-05T14:45:31.786Z,101402.22
2022-11-05T14:48:43.769Z,101388.34
2022-11-05T14:51:44.289Z,101395.63
2022-11-05T14:54:49.866Z,101393.88
2022-11-05T14:57:53.181Z,101396.72
2022-11-05T15:00:50.739Z,101388.56
2022-11-05T15:04:01.332Z,101390.81
2022-11-05T15:07:45.185Z,101384.69
2022-11-05T15:10:42.840Z,101388.56
2022-11-05T15:13:53.596Z,101369.00
2022-11-05T15:16:53.188Z,101374.88
2022-11-05T15:19:51.149Z,101368.72
2022-11-05T15:22:51.977Z,101386.41
2022-11-05T15:26:06.604Z,101389.03
2022-11-05T15:29:04.116Z,101397.16
2022-11-05T15:32:01.907Z,101389.97
2022-11-05T15:34:58.725Z,101391.50
2022-11-05T15:38:01.786Z,101385.94
2022-11-05T15:41:01.971Z,101391.84
2022-11-05T15:43:59.994Z,101398.22
2022-11-05T15:47:26.301Z,101403.16
2022-11-05T15:50:23.532Z,101410.00
2022-11-05T15:53:56.036Z,101391.00
2022-11-05T15:56:55.979Z,101393.41
2022-11-05T15:59:53.425Z,101405.22
2022-11-05T16:02:56.758Z,101422.84
2022-11-05T16:05:54.056Z,101415.41
2022-11-05T16:08:51.598Z,101399.06
2022-11-05T16:11:48.481Z,101408.75
2022-11-05T16:14:57.357Z,101400.00
2022-11-05T16:18:01.140Z,101407.13
2022-11-05T16:21:11.459Z,101422.38
2022-11-05T16:24:28.150Z,101420.28
2022-11-05T16:27:26.665Z,101418.47
2022-11-05T16:30:23.943Z,101415.78
2022-11-05T16:33:20.658Z,101413.03
2022-11-05T16:36:17.488Z,101414.41
2022-11-05T16:39:14.880Z,101420.38
2022-11-05T16:42:24.527Z,101417.47
2022-11-05T16:45:24.178Z,101423.59
2022-11-05T16:48:21.741Z,101427.69
2022-11-05T16:51:23.394Z,101419.56
2022-11-05T16:54:23.707Z,101428.63
2022-11-05T16:57:27.547Z,101425.94
2022-11-05T17:00:25.077Z,101442.88
2022-11-05T17:03:21.576Z,101422.91
2022-11-05T17:06:19.821Z,101413.19
2022-11-05T17:09:16.889Z,101404.16
2022-11-05T17:12:13.715Z,101400.28
2022-11-05T17:15:33.643Z,101412.88
2022-11-05T17:18:30.553Z,101392.56
2022-11-05T17:21:28.886Z,101413.97
2022-11-05T17:24:25.650Z,101415.78
2022-11-05T17:27:22.886Z,101399.00
2022-11-05T17:30:19.617Z,101382.84
2022-11-05T17:33:18.929Z,101392.44
2022-11-05T17:36:16.311Z,101381.47
2022-11-05T17:39:13.876Z,101385.53
2022-11-05T17:42:10.846Z,101381.94
2022-11-05T17:45:08.475Z,101381.44
2022-11-05T17:48:05.794Z,101388.22
2022-11-05T17:51:03.022Z,101388.78
2022-11-05T17:53:59.688Z,101396.00
2022-11-05T17:56:56.990Z,101384.75
2022-11-05T17:59:53.877Z,101383.50
2022-11-05T18:02:52.288Z,101385.97
2022-11-05T18:05:49.909Z,101378.69
2022-11-05T18:08:47.025Z,101390.50
2022-11-05T18:11:43.919Z,101391.16
2022-11-05T18:14:40.706Z,101392.69
2022-11-05T18:17:40.194Z,101392.34
2022-11-05T18:20:38.323Z,101381.38
2022-11-05T18:23:35.839Z,101391.28
2022-11-05T18:26:32.769Z,101400.75
2022-11-05T18:29:29.818Z,101385.91
2022-11-05T18:32:26.785Z,101379.56
2022-11-05T18:35:23.997Z,101382.38
2022-11-05T18:38:21.101Z,101392.38
2022-11-05T18:41:18.001Z,101402.81
2022-11-05T18:44:16.900Z,101397.84
2022-11-05T18:47:13.823Z,101376.38
2022-11-05T18:50:11.076Z,101392.34
2022-11-05T18:53:08.269Z,101385.38
2022-11-05T18:56:09.493Z,101371.50
2022-11-05T18:59:35.112Z,101370.75
2022-11-05T19:02:24.033Z,101381.88
2022-11-05T19:05:29.075Z,101389.13
2022-11-05T19:08:27.126Z,101383.13
2022-11-05T19:11:24.977Z,101387.72
2022-11-05T19:14:21.838Z,101368.66
2022-11-05T19:17:19.298Z,101377.13
2022-11-05T19:20:16.960Z,101366.63
2022-11-05T19:23:13.606Z,101378.41
2022-11-05T19:26:18.360Z,101389.69
2022-11-05T19:29:15.595Z,101380.84
2022-11-05T19:32:13.196Z,101375.47
2022-11-05T19:35:09.864Z,101368.63
2022-11-05T19:38:06.695Z,101361.69
2022-11-05T19:41:09.051Z,101371.94
2022-11-05T19:44:05.721Z,101370.75
2022-11-05T19:47:02.977Z,101363.03
2022-11-05T19:49:59.961Z,101359.16
2022-11-05T19:52:56.847Z,101366.50
2022-11-05T19:55:54.114Z,101362.41
2022-11-05T19:58:50.850Z,101350.38
2022-11-05T20:01:48.006Z,101352.16
2022-11-05T20:04:44.925Z,101373.66
2022-11-05T20:07:43.612Z,101356.63
2022-11-05T20:10:45.912Z,101366.44
2022-11-05T20:13:42.815Z,101375.59
2022-11-05T20:16:41.362Z,101371.50
2022-11-05T20:19:39.109Z,101370.75
2022-11-05T20:22:36.373Z,101363.31
2022-11-05T20:25:33.878Z,101354.97
2022-11-05T20:28:33.472Z,101347.22
2022-11-05T20:31:30.709Z,101356.00
2022-11-05T20:34:29.601Z,101354.81
2022-11-05T20:37:27.713Z,101366.69
2022-11-05T20:40:25.195Z,101376.69
2022-11-05T20:43:26.043Z,101370.38
2022-11-05T20:46:25.879Z,101364.16
2022-11-05T20:49:25.644Z,101377.44
2022-11-05T20:52:23.373Z,101376.72
2022-11-05T20:55:21.230Z,101369.09
2022-11-05T20:58:17.788Z,101378.59
2022-11-05T21:01:16.519Z,101376.84
2022-11-05T21:04:14.196Z,101376.13
2022-11-05T21:07:11.322Z,101388.00
2022-11-05T21:10:08.995Z,101367.06
2022-11-05T21:13:05.930Z,101363.38
2022-11-05T21:16:04.427Z,101367.75
2022-11-05T21:19:01.892Z,101355.88
2022-11-05T21:21:58.663Z,101363.81
2022-11-05T21:24:58.712Z,101360.63
2022-11-05T21:27:56.415Z,101351.00
2022-11-05T21:30:53.884Z,101353.13
2022-11-05T21:33:54.974Z,101361.38
2022-11-05T21:36:53.383Z,101352.88
2022-11-05T21:39:51.367Z,101363.44
2022-11-05T21:42:49.071Z,101361.75
2022-11-05T21:45:46.030Z,101357.75
2022-11-05T21:48:43.028Z,101343.41
2022-11-05T21:51:59.780Z,101354.28
2022-11-05T21:55:15.419Z,101348.16
2022-11-05T21:58:33.722Z,101340.28
2022-11-05T22:01:31.939Z,101342.03
2022-11-05T22:04:34.584Z,101351.72
2022-11-05T22:07:34.200Z,101337.19
2022-11-05T22:10:31.120Z,101344.94
2022-11-05T22:13:28.327Z,101336.84
2022-11-05T22:16:26.204Z,101345.38
2022-11-05T22:19:23.211Z,101334.94
2022-11-05T22:22:19.892Z,101331.03
2022-11-05T22:25:16.798Z,101333.34
2022-11-05T22:28:14.226Z,101341.41
2022-11-05T22:31:15.613Z,101333.69
2022-11-05T22:34:13.256Z,101313.31
2022-11-05T22:37:11.997Z,101323.34
2022-11-05T22:40:09.778Z,101317.00
2022-11-05T22:43:06.805Z,101309.59
2022-11-05T22:46:08.894Z,101310.97
2022-11-05T22:49:07.217Z,101312.06
2022-11-05T22:52:04.244Z,101313.19
2022-11-05T22:55:03.918Z,101328.72
2022-11-05T22:58:01.110Z,101328.03
2022-11-05T23:00:58.095Z,101322.59
2022-11-05T23:03:56.439Z,101297.31
2022-11-05T23:07:12.391Z,101303.78
2022-11-05T23:10:28.158Z,101297.03
2022-11-05T23:13:24.782Z,101286.56
2022-11-05T23:16:40.875Z,101296.78
2022-11-05T23:19:56.831Z,101280.72
2022-11-05T23:23:12.587Z,101288.47
2022-11-05T23:26:29.031Z,101288.38
2022-11-05T23:29:26.936Z,101298.69
2022-11-05T23:32:24.034Z,101296.16
2022-11-05T23:35:41.181Z,101280.63
2022-11-05T23:38:38.389Z,101281.75
2022-11-05T23:42:04.431Z,101269.00
2022-11-05T23:45:20.756Z,101262.97
2022-11-05T23:48:26.887Z,101267.34
2022-11-05T23:51:24.777Z,101265.03
2022-11-05T23:54:22.536Z,101269.31
2022-11-05T23:57:20.314Z,101260.31
